sensor_id;sensor_type;location;lat;lon;timestamp;P1;durP1;ratioP1;P2;durP2;ratioP2
3463;SDS011;3551;41.578;24.706;2022-09-09T00:00:28;10.00;;;8.93;;
3463;SDS011;3551;41.578;24.706;2022-09-09T00:03:04;11.90;;;8.73;;
3463;SDS011;3551;41.578;24.706;2022-09-09T00:05:38;16.47;;;9.23;;
3463;SDS011;3551;41.578;24.706;2022-09-09T00:08:17;10.10;;;7.40;;
3463;SDS011;3551;41.578;24.706;2022-09-09T00:10:48;10.93;;;8.53;;
3463;SDS011;3551;41.578;24.706;2022-09-09T00:13:20;10.00;;;8.03;;
3463;SDS011;3551;41.578;24.706;2022-09-09T00:15:55;9.67;;;8.50;;
3463;SDS011;3551;41.578;24.706;2022-09-09T00:18:27;12.33;;;9.00;;
3463;SDS011;3551;41.578;24.706;2022-09-09T00:21:01;11.63;;;8.50;;
3463;SDS011;3551;41.578;24.706;2022-09-09T00:23:33;11.37;;;8.53;;
3463;SDS011;3551;41.578;24.706;2022-09-09T00:26:07;12.30;;;8.53;;
3463;SDS011;3551;41.578;24.706;2022-09-09T00:28:41;9.23;;;8.23;;
3463;SDS011;3551;41.578;24.706;2022-09-09T00:31:18;11.10;;;7.93;;
3463;SDS011;3551;41.578;24.706;2022-09-09T00:33:51;10.93;;;8.20;;
3463;SDS011;3551;41.578;24.706;2022-09-09T00:36:20;10.87;;;8.57;;
3463;SDS011;3551;41.578;24.706;2022-09-09T00:38:52;13.30;;;8.40;;
3463;SDS011;3551;41.578;24.706;2022-09-09T00:41:26;11.50;;;9.50;;
3463;SDS011;3551;41.578;24.706;2022-09-09T00:44:08;10.43;;;8.80;;
3463;SDS011;3551;41.578;24.706;2022-09-09T00:46:53;12.07;;;8.27;;
3463;SDS011;3551;41.578;24.706;2022-09-09T00:49:28;8.83;;;7.93;;
3463;SDS011;3551;41.578;24.706;2022-09-09T00:52:08;14.77;;;8.63;;
3463;SDS011;3551;41.578;24.706;2022-09-09T00:54:49;10.20;;;8.27;;
3463;SDS011;3551;41.578;24.706;2022-09-09T00:57:27;12.30;;;8.00;;
3463;SDS011;3551;41.578;24.706;2022-09-09T00:59:57;9.53;;;8.50;;
3463;SDS011;3551;41.578;24.706;2022-09-09T01:02:44;11.57;;;8.63;;
3463;SDS011;3551;41.578;24.706;2022-09-09T01:05:19;15.10;;;8.43;;
3463;SDS011;3551;41.578;24.706;2022-09-09T01:07:51;11.80;;;8.73;;
3463;SDS011;3551;41.578;24.706;2022-09-09T01:10:21;9.17;;;8.00;;
3463;SDS011;3551;41.578;24.706;2022-09-09T01:12:54;9.43;;;7.90;;
3463;SDS011;3551;41.578;24.706;2022-09-09T01:15:26;16.33;;;8.40;;
3463;SDS011;3551;41.578;24.706;2022-09-09T01:17:58;9.70;;;8.30;;
3463;SDS011;3551;41.578;24.706;2022-09-09T01:20:29;14.70;;;8.63;;
3463;SDS011;3551;41.578;24.706;2022-09-09T01:23:09;10.10;;;8.03;;
3463;SDS011;3551;41.578;24.706;2022-09-09T01:26:07;10.10;;;8.47;;
3463;SDS011;3551;41.578;24.706;2022-09-09T01:28:42;14.43;;;8.93;;
3463;SDS011;3551;41.578;24.706;2022-09-09T01:31:13;13.43;;;9.67;;
3463;SDS011;3551;41.578;24.706;2022-09-09T01:33:44;18.07;;;8.30;;
3463;SDS011;3551;41.578;24.706;2022-09-09T01:36:12;11.53;;;8.77;;
3463;SDS011;3551;41.578;24.706;2022-09-09T01:38:45;13.20;;;7.70;;
3463;SDS011;3551;41.578;24.706;2022-09-09T01:41:13;10.63;;;8.00;;
3463;SDS011;3551;41.578;24.706;2022-09-09T01:43:40;10.40;;;8.37;;
3463;SDS011;3551;41.578;24.706;2022-09-09T01:46:07;10.83;;;8.57;;
3463;SDS011;3551;41.578;24.706;2022-09-09T01:48:34;18.00;;;9.87;;
3463;SDS011;3551;41.578;24.706;2022-09-09T01:51:01;10.53;;;8.90;;
3463;SDS011;3551;41.578;24.706;2022-09-09T01:53:28;11.93;;;8.40;;
3463;SDS011;3551;41.578;24.706;2022-09-09T01:55:58;12.07;;;7.97;;
3463;SDS011;3551;41.578;24.706;2022-09-09T01:58:37;16.37;;;8.83;;
3463;SDS011;3551;41.578;24.706;2022-09-09T02:01:15;10.77;;;8.87;;
3463;SDS011;3551;41.578;24.706;2022-09-09T02:03:49;11.87;;;8.10;;
3463;SDS011;3551;41.578;24.706;2022-09-09T02:06:25;10.23;;;9.13;;
3463;SDS011;3551;41.578;24.706;2022-09-09T02:08:55;10.77;;;8.20;;
3463;SDS011;3551;41.578;24.706;2022-09-09T02:11:25;10.47;;;9.23;;
3463;SDS011;3551;41.578;24.706;2022-09-09T02:13:56;13.37;;;9.47;;
3463;SDS011;3551;41.578;24.706;2022-09-09T02:16:28;11.87;;;8.60;;
3463;SDS011;3551;41.578;24.706;2022-09-09T02:19:01;14.60;;;9.50;;
3463;SDS011;3551;41.578;24.706;2022-09-09T02:21:33;14.37;;;10.10;;
3463;SDS011;3551;41.578;24.706;2022-09-09T02:24:02;9.40;;;8.30;;
3463;SDS011;3551;41.578;24.706;2022-09-09T02:26:33;12.70;;;8.40;;
3463;SDS011;3551;41.578;24.706;2022-09-09T02:29:04;15.13;;;9.63;;
3463;SDS011;3551;41.578;24.706;2022-09-09T02:31:34;10.30;;;9.13;;
3463;SDS011;3551;41.578;24.706;2022-09-09T02:34:04;12.43;;;9.50;;
3463;SDS011;3551;41.578;24.706;2022-09-09T02:36:36;11.67;;;9.90;;
3463;SDS011;3551;41.578;24.706;2022-09-09T02:39:07;10.40;;;8.57;;
3463;SDS011;3551;41.578;24.706;2022-09-09T02:41:36;14.03;;;8.90;;
3463;SDS011;3551;41.578;24.706;2022-09-09T02:44:08;11.40;;;8.30;;
3463;SDS011;3551;41.578;24.706;2022-09-09T02:46:40;11.80;;;9.13;;
3463;SDS011;3551;41.578;24.706;2022-09-09T02:49:19;11.40;;;8.77;;
3463;SDS011;3551;41.578;24.706;2022-09-09T02:51:57;16.10;;;9.90;;
3463;SDS011;3551;41.578;24.706;2022-09-09T02:54:29;13.77;;;9.20;;
3463;SDS011;3551;41.578;24.706;2022-09-09T02:56:59;13.57;;;9.23;;
3463;SDS011;3551;41.578;24.706;2022-09-09T02:59:32;11.23;;;8.63;;
3463;SDS011;3551;41.578;24.706;2022-09-09T03:01:59;12.30;;;8.90;;
3463;SDS011;3551;41.578;24.706;2022-09-09T03:04:27;12.73;;;8.80;;
3463;SDS011;3551;41.578;24.706;2022-09-09T03:06:54;9.90;;;8.33;;
3463;SDS011;3551;41.578;24.706;2022-09-09T03:09:21;11.70;;;9.70;;
3463;SDS011;3551;41.578;24.706;2022-09-09T03:11:48;12.60;;;9.10;;
3463;SDS011;3551;41.578;24.706;2022-09-09T03:14:15;17.67;;;9.50;;
3463;SDS011;3551;41.578;24.706;2022-09-09T03:16:47;17.80;;;10.27;;
3463;SDS011;3551;41.578;24.706;2022-09-09T03:19:14;19.07;;;9.87;;
3463;SDS011;3551;41.578;24.706;2022-09-09T03:21:41;19.13;;;10.57;;
3463;SDS011;3551;41.578;24.706;2022-09-09T03:24:08;22.03;;;9.60;;
3463;SDS011;3551;41.578;24.706;2022-09-09T03:26:35;18.17;;;9.93;;
3463;SDS011;3551;41.578;24.706;2022-09-09T03:29:02;12.33;;;9.53;;
3463;SDS011;3551;41.578;24.706;2022-09-09T03:31:31;12.20;;;9.70;;
3463;SDS011;3551;41.578;24.706;2022-09-09T03:33:59;11.33;;;9.53;;
3463;SDS011;3551;41.578;24.706;2022-09-09T03:36:27;16.93;;;10.30;;
3463;SDS011;3551;41.578;24.706;2022-09-09T03:38:54;13.13;;;11.00;;
3463;SDS011;3551;41.578;24.706;2022-09-09T03:41:22;16.63;;;10.10;;
3463;SDS011;3551;41.578;24.706;2022-09-09T03:43:49;18.30;;;10.20;;
3463;SDS011;3551;41.578;24.706;2022-09-09T03:46:16;14.00;;;10.67;;
3463;SDS011;3551;41.578;24.706;2022-09-09T03:48:43;11.43;;;9.53;;
3463;SDS011;3551;41.578;24.706;2022-09-09T03:51:12;14.00;;;10.70;;
3463;SDS011;3551;41.578;24.706;2022-09-09T03:53:39;20.00;;;12.33;;
3463;SDS011;3551;41.578;24.706;2022-09-09T03:56:06;12.87;;;9.43;;
3463;SDS011;3551;41.578;24.706;2022-09-09T03:58:33;16.03;;;11.07;;
3463;SDS011;3551;41.578;24.706;2022-09-09T04:01:02;21.57;;;11.50;;
3463;SDS011;3551;41.578;24.706;2022-09-09T04:03:31;14.70;;;9.63;;
3463;SDS011;3551;41.578;24.706;2022-09-09T04:05:59;19.00;;;10.30;;
3463;SDS011;3551;41.578;24.706;2022-09-09T04:08:28;15.17;;;9.80;;
3463;SDS011;3551;41.578;24.706;2022-09-09T04:10:56;19.80;;;12.87;;
3463;SDS011;3551;41.578;24.706;2022-09-09T04:13:24;13.10;;;11.07;;
3463;SDS011;3551;41.578;24.706;2022-09-09T04:15:51;17.13;;;10.43;;
3463;SDS011;3551;41.578;24.706;2022-09-09T04:18:20;21.23;;;9.87;;
3463;SDS011;3551;41.578;24.706;2022-09-09T04:20:47;18.50;;;10.90;;
3463;SDS011;3551;41.578;24.706;2022-09-09T04:23:15;17.50;;;10.83;;
3463;SDS011;3551;41.578;24.706;2022-09-09T04:25:47;19.63;;;12.17;;
3463;SDS011;3551;41.578;24.706;2022-09-09T04:28:16;16.40;;;11.97;;
3463;SDS011;3551;41.578;24.706;2022-09-09T04:30:44;17.47;;;11.63;;
3463;SDS011;3551;41.578;24.706;2022-09-09T04:33:11;15.73;;;11.03;;
3463;SDS011;3551;41.578;24.706;2022-09-09T04:35:39;16.03;;;10.60;;
3463;SDS011;3551;41.578;24.706;2022-09-09T04:38:11;22.50;;;11.90;;
3463;SDS011;3551;41.578;24.706;2022-09-09T04:40:38;14.40;;;11.47;;
3463;SDS011;3551;41.578;24.706;2022-09-09T04:43:09;17.80;;;11.33;;
3463;SDS011;3551;41.578;24.706;2022-09-09T04:45:36;17.07;;;11.67;;
3463;SDS011;3551;41.578;24.706;2022-09-09T04:48:06;15.53;;;10.43;;
3463;SDS011;3551;41.578;24.706;2022-09-09T04:50:34;21.73;;;14.10;;
3463;SDS011;3551;41.578;24.706;2022-09-09T04:53:02;19.63;;;12.23;;
3463;SDS011;3551;41.578;24.706;2022-09-09T04:55:30;21.70;;;12.10;;
3463;SDS011;3551;41.578;24.706;2022-09-09T04:57:57;17.20;;;11.40;;
3463;SDS011;3551;41.578;24.706;2022-09-09T05:00:25;19.20;;;12.60;;
3463;SDS011;3551;41.578;24.706;2022-09-09T05:02:52;15.47;;;11.13;;
3463;SDS011;3551;41.578;24.706;2022-09-09T05:05:19;17.90;;;13.83;;
3463;SDS011;3551;41.578;24.706;2022-09-09T05:07:46;23.50;;;12.33;;
3463;SDS011;3551;41.578;24.706;2022-09-09T05:10:13;47.40;;;12.33;;
3463;SDS011;3551;41.578;24.706;2022-09-09T05:12:41;18.20;;;12.07;;
3463;SDS011;3551;41.578;24.706;2022-09-09T05:15:09;20.23;;;12.93;;
3463;SDS011;3551;41.578;24.706;2022-09-09T05:17:38;26.10;;;11.30;;
3463;SDS011;3551;41.578;24.706;2022-09-09T05:20:05;24.93;;;12.63;;
3463;SDS011;3551;41.578;24.706;2022-09-09T05:22:33;21.73;;;11.70;;
3463;SDS011;3551;41.578;24.706;2022-09-09T05:24:59;16.97;;;10.60;;
3463;SDS011;3551;41.578;24.706;2022-09-09T05:27:27;17.80;;;10.83;;
3463;SDS011;3551;41.578;24.706;2022-09-09T05:29:56;23.03;;;10.60;;
3463;SDS011;3551;41.578;24.706;2022-09-09T05:32:23;20.23;;;12.77;;
3463;SDS011;3551;41.578;24.706;2022-09-09T05:34:51;14.53;;;10.80;;
3463;SDS011;3551;41.578;24.706;2022-09-09T05:37:18;30.67;;;11.27;;
3463;SDS011;3551;41.578;24.706;2022-09-09T05:39:45;19.60;;;10.90;;
3463;SDS011;3551;41.578;24.706;2022-09-09T05:42:12;19.43;;;9.83;;
3463;SDS011;3551;41.578;24.706;2022-09-09T05:44:39;20.33;;;10.27;;
3463;SDS011;3551;41.578;24.706;2022-09-09T05:47:08;18.33;;;11.03;;
3463;SDS011;3551;41.578;24.706;2022-09-09T05:49:35;19.37;;;10.23;;
3463;SDS011;3551;41.578;24.706;2022-09-09T05:52:03;16.50;;;9.60;;
3463;SDS011;3551;41.578;24.706;2022-09-09T05:54:30;16.20;;;11.67;;
3463;SDS011;3551;41.578;24.706;2022-09-09T05:56:57;17.37;;;10.57;;
3463;SDS011;3551;41.578;24.706;2022-09-09T05:59:24;17.17;;;10.27;;
3463;SDS011;3551;41.578;24.706;2022-09-09T06:01:51;19.60;;;10.53;;
3463;SDS011;3551;41.578;24.706;2022-09-09T06:04:18;20.43;;;11.43;;
3463;SDS011;3551;41.578;24.706;2022-09-09T06:06:50;18.77;;;9.27;;
3463;SDS011;3551;41.578;24.706;2022-09-09T06:09:18;20.33;;;9.70;;
3463;SDS011;3551;41.578;24.706;2022-09-09T06:11:45;19.40;;;9.80;;
3463;SDS011;3551;41.578;24.706;2022-09-09T06:14:12;22.37;;;10.63;;
3463;SDS011;3551;41.578;24.706;2022-09-09T06:16:39;21.87;;;10.30;;
3463;SDS011;3551;41.578;24.706;2022-09-09T06:19:09;49.70;;;11.70;;
3463;SDS011;3551;41.578;24.706;2022-09-09T06:21:37;18.97;;;9.93;;
3463;SDS011;3551;41.578;24.706;2022-09-09T06:24:05;23.73;;;10.60;;
3463;SDS011;3551;41.578;24.706;2022-09-09T06:26:35;16.63;;;9.40;;
3463;SDS011;3551;41.578;24.706;2022-09-09T06:29:06;18.70;;;10.13;;
3463;SDS011;3551;41.578;24.706;2022-09-09T06:31:34;24.23;;;10.93;;
3463;SDS011;3551;41.578;24.706;2022-09-09T06:34:03;27.93;;;11.57;;
3463;SDS011;3551;41.578;24.706;2022-09-09T06:36:32;18.90;;;10.20;;
3463;SDS011;3551;41.578;24.706;2022-09-09T06:39:02;13.77;;;9.63;;
3463;SDS011;3551;41.578;24.706;2022-09-09T06:41:30;36.00;;;11.27;;
3463;SDS011;3551;41.578;24.706;2022-09-09T06:43:59;25.00;;;11.27;;
3463;SDS011;3551;41.578;24.706;2022-09-09T06:46:27;19.30;;;11.03;;
3463;SDS011;3551;41.578;24.706;2022-09-09T06:48:56;18.20;;;10.70;;
3463;SDS011;3551;41.578;24.706;2022-09-09T06:51:25;24.13;;;8.80;;
3463;SDS011;3551;41.578;24.706;2022-09-09T06:53:53;22.13;;;10.27;;
3463;SDS011;3551;41.578;24.706;2022-09-09T06:56:22;19.93;;;9.73;;
3463;SDS011;3551;41.578;24.706;2022-09-09T06:58:51;11.93;;;9.30;;
3463;SDS011;3551;41.578;24.706;2022-09-09T07:01:21;21.63;;;8.93;;
3463;SDS011;3551;41.578;24.706;2022-09-09T07:03:50;14.33;;;8.13;;
3463;SDS011;3551;41.578;24.706;2022-09-09T07:06:19;20.43;;;9.20;;
3463;SDS011;3551;41.578;24.706;2022-09-09T07:08:50;13.67;;;7.83;;
3463;SDS011;3551;41.578;24.706;2022-09-09T07:11:18;19.10;;;8.23;;
3463;SDS011;3551;41.578;24.706;2022-09-09T07:13:46;12.33;;;7.50;;
3463;SDS011;3551;41.578;24.706;2022-09-09T07:16:14;12.70;;;6.30;;
3463;SDS011;3551;41.578;24.706;2022-09-09T07:18:44;12.17;;;6.83;;
3463;SDS011;3551;41.578;24.706;2022-09-09T07:21:12;13.30;;;6.83;;
3463;SDS011;3551;41.578;24.706;2022-09-09T07:23:41;14.00;;;7.00;;
3463;SDS011;3551;41.578;24.706;2022-09-09T07:26:09;13.53;;;7.07;;
3463;SDS011;3551;41.578;24.706;2022-09-09T07:28:37;12.83;;;7.83;;
3463;SDS011;3551;41.578;24.706;2022-09-09T07:31:05;13.93;;;7.17;;
3463;SDS011;3551;41.578;24.706;2022-09-09T07:33:33;14.60;;;8.13;;
3463;SDS011;3551;41.578;24.706;2022-09-09T07:36:06;13.70;;;7.00;;
3463;SDS011;3551;41.578;24.706;2022-09-09T07:38:37;11.10;;;7.57;;
3463;SDS011;3551;41.578;24.706;2022-09-09T07:41:05;9.07;;;6.70;;
3463;SDS011;3551;41.578;24.706;2022-09-09T07:43:34;14.03;;;8.27;;
3463;SDS011;3551;41.578;24.706;2022-09-09T07:46:01;10.93;;;8.17;;
3463;SDS011;3551;41.578;24.706;2022-09-09T07:48:28;11.20;;;7.10;;
3463;SDS011;3551;41.578;24.706;2022-09-09T07:51:07;7.93;;;6.53;;
3463;SDS011;3551;41.578;24.706;2022-09-09T07:53:37;11.67;;;6.50;;
3463;SDS011;3551;41.578;24.706;2022-09-09T07:56:05;14.80;;;8.83;;
3463;SDS011;3551;41.578;24.706;2022-09-09T07:58:34;12.30;;;6.33;;
3463;SDS011;3551;41.578;24.706;2022-09-09T08:01:05;14.07;;;7.83;;
3463;SDS011;3551;41.578;24.706;2022-09-09T08:03:34;11.47;;;6.37;;
3463;SDS011;3551;41.578;24.706;2022-09-09T08:06:01;8.57;;;6.70;;
3463;SDS011;3551;41.578;24.706;2022-09-09T08:08:30;8.97;;;7.30;;
3463;SDS011;3551;41.578;24.706;2022-09-09T08:11:01;9.43;;;6.60;;
3463;SDS011;3551;41.578;24.706;2022-09-09T08:13:30;8.60;;;6.60;;
3463;SDS011;3551;41.578;24.706;2022-09-09T08:16:03;11.20;;;6.60;;
3463;SDS011;3551;41.578;24.706;2022-09-09T08:18:31;8.27;;;6.83;;
3463;SDS011;3551;41.578;24.706;2022-09-09T08:20:58;8.50;;;6.40;;
3463;SDS011;3551;41.578;24.706;2022-09-09T08:23:33;8.13;;;5.93;;
3463;SDS011;3551;41.578;24.706;2022-09-09T08:26:04;10.80;;;5.60;;
3463;SDS011;3551;41.578;24.706;2022-09-09T08:28:36;10.13;;;6.53;;
3463;SDS011;3551;41.578;24.706;2022-09-09T08:31:07;10.30;;;6.20;;
3463;SDS011;3551;41.578;24.706;2022-09-09T08:33:35;7.63;;;6.33;;
3463;SDS011;3551;41.578;24.706;2022-09-09T08:36:04;9.40;;;6.40;;
3463;SDS011;3551;41.578;24.706;2022-09-09T08:38:33;10.60;;;5.57;;
3463;SDS011;3551;41.578;24.706;2022-09-09T08:41:04;6.70;;;5.63;;
3463;SDS011;3551;41.578;24.706;2022-09-09T08:43:43;15.07;;;5.10;;
3463;SDS011;3551;41.578;24.706;2022-09-09T08:46:14;6.60;;;5.20;;
3463;SDS011;3551;41.578;24.706;2022-09-09T08:48:52;6.90;;;4.90;;
3463;SDS011;3551;41.578;24.706;2022-09-09T08:51:25;15.20;;;5.10;;
3463;SDS011;3551;41.578;24.706;2022-09-09T08:53:58;9.07;;;4.63;;
3463;SDS011;3551;41.578;24.706;2022-09-09T08:56:28;6.37;;;4.17;;
3463;SDS011;3551;41.578;24.706;2022-09-09T08:58:59;12.87;;;4.80;;
3463;SDS011;3551;41.578;24.706;2022-09-09T09:01:32;10.63;;;4.50;;
3463;SDS011;3551;41.578;24.706;2022-09-09T09:04:12;9.90;;;4.60;;
3463;SDS011;3551;41.578;24.706;2022-09-09T09:06:50;8.60;;;4.80;;
3463;SDS011;3551;41.578;24.706;2022-09-09T09:09:31;8.13;;;4.93;;
3463;SDS011;3551;41.578;24.706;2022-09-09T09:12:13;7.93;;;4.97;;
3463;SDS011;3551;41.578;24.706;2022-09-09T09:14:43;11.10;;;5.47;;
3463;SDS011;3551;41.578;24.706;2022-09-09T09:17:13;10.20;;;4.77;;
3463;SDS011;3551;41.578;24.706;2022-09-09T09:19:44;7.40;;;5.33;;
3463;SDS011;3551;41.578;24.706;2022-09-09T09:22:15;7.13;;;5.07;;
3463;SDS011;3551;41.578;24.706;2022-09-09T09:24:48;8.00;;;5.00;;
3463;SDS011;3551;41.578;24.706;2022-09-09T09:27:20;9.90;;;5.23;;
3463;SDS011;3551;41.578;24.706;2022-09-09T09:29:54;7.47;;;5.33;;
3463;SDS011;3551;41.578;24.706;2022-09-09T09:32:23;7.77;;;4.70;;
3463;SDS011;3551;41.578;24.706;2022-09-09T09:34:53;6.00;;;4.97;;
3463;SDS011;3551;41.578;24.706;2022-09-09T09:37:23;8.97;;;4.40;;
3463;SDS011;3551;41.578;24.706;2022-09-09T09:39:55;11.53;;;4.80;;
3463;SDS011;3551;41.578;24.706;2022-09-09T09:42:22;6.93;;;4.90;;
3463;SDS011;3551;41.578;24.706;2022-09-09T09:44:49;9.37;;;4.07;;
3463;SDS011;3551;41.578;24.706;2022-09-09T09:47:18;9.50;;;4.73;;
3463;SDS011;3551;41.578;24.706;2022-09-09T09:49:53;10.43;;;4.77;;
3463;SDS011;3551;41.578;24.706;2022-09-09T09:52:21;6.60;;;3.40;;
3463;SDS011;3551;41.578;24.706;2022-09-09T09:54:50;9.80;;;4.40;;
3463;SDS011;3551;41.578;24.706;2022-09-09T09:57:22;8.60;;;3.50;;
3463;SDS011;3551;41.578;24.706;2022-09-09T10:00:01;7.80;;;4.87;;
3463;SDS011;3551;41.578;24.706;2022-09-09T10:02:36;4.60;;;4.17;;
3463;SDS011;3551;41.578;24.706;2022-09-09T10:05:08;8.23;;;4.53;;
3463;SDS011;3551;41.578;24.706;2022-09-09T10:07:40;9.50;;;3.80;;
3463;SDS011;3551;41.578;24.706;2022-09-09T10:10:12;9.87;;;4.13;;
3463;SDS011;3551;41.578;24.706;2022-09-09T10:12:46;10.00;;;4.73;;
3463;SDS011;3551;41.578;24.706;2022-09-09T10:15:29;16.33;;;4.20;;
3463;SDS011;3551;41.578;24.706;2022-09-09T10:18:05;6.70;;;3.73;;
3463;SDS011;3551;41.578;24.706;2022-09-09T10:20:51;7.23;;;3.90;;
3463;SDS011;3551;41.578;24.706;2022-09-09T10:23:29;6.00;;;3.20;;
3463;SDS011;3551;41.578;24.706;2022-09-09T10:26:12;13.17;;;4.53;;
3463;SDS011;3551;41.578;24.706;2022-09-09T10:31:43;7.77;;;3.57;;
3463;SDS011;3551;41.578;24.706;2022-09-09T10:34:19;9.93;;;3.50;;
3463;SDS011;3551;41.578;24.706;2022-09-09T10:37:01;14.10;;;4.03;;
3463;SDS011;3551;41.578;24.706;2022-09-09T10:39:38;9.40;;;4.30;;
3463;SDS011;3551;41.578;24.706;2022-09-09T10:42:07;8.43;;;3.90;;
3463;SDS011;3551;41.578;24.706;2022-09-09T10:44:40;6.80;;;3.80;;
3463;SDS011;3551;41.578;24.706;2022-09-09T10:47:30;6.47;;;3.90;;
3463;SDS011;3551;41.578;24.706;2022-09-09T10:53:14;11.07;;;4.17;;
3463;SDS011;3551;41.578;24.706;2022-09-09T10:55:51;5.67;;;4.23;;
3463;SDS011;3551;41.578;24.706;2022-09-09T10:58:22;16.30;;;4.60;;
3463;SDS011;3551;41.578;24.706;2022-09-09T11:00:55;7.50;;;4.53;;
3463;SDS011;3551;41.578;24.706;2022-09-09T11:03:27;10.63;;;7.50;;
3463;SDS011;3551;41.578;24.706;2022-09-09T11:05:56;9.40;;;4.47;;
3463;SDS011;3551;41.578;24.706;2022-09-09T11:08:28;7.97;;;4.73;;
3463;SDS011;3551;41.578;24.706;2022-09-09T11:10:58;5.57;;;3.53;;
3463;SDS011;3551;41.578;24.706;2022-09-09T11:13:30;7.83;;;4.20;;
3463;SDS011;3551;41.578;24.706;2022-09-09T11:16:15;11.50;;;3.83;;
3463;SDS011;3551;41.578;24.706;2022-09-09T11:18:48;12.03;;;4.43;;
3463;SDS011;3551;41.578;24.706;2022-09-09T11:21:17;6.50;;;4.27;;
3463;SDS011;3551;41.578;24.706;2022-09-09T11:23:51;10.10;;;5.40;;
3463;SDS011;3551;41.578;24.706;2022-09-09T11:26:24;9.23;;;4.03;;
3463;SDS011;3551;41.578;24.706;2022-09-09T11:29:01;10.10;;;4.17;;
3463;SDS011;3551;41.578;24.706;2022-09-09T11:31:46;9.07;;;4.50;;
3463;SDS011;3551;41.578;24.706;2022-09-09T11:34:30;14.07;;;7.50;;
3463;SDS011;3551;41.578;24.706;2022-09-09T11:37:09;27.60;;;14.00;;
3463;SDS011;3551;41.578;24.706;2022-09-09T11:42:41;11.50;;;4.00;;
3463;SDS011;3551;41.578;24.706;2022-09-09T11:45:09;13.50;;;4.50;;
3463;SDS011;3551;41.578;24.706;2022-09-09T11:47:39;11.30;;;4.83;;
3463;SDS011;3551;41.578;24.706;2022-09-09T11:50:10;10.33;;;4.20;;
3463;SDS011;3551;41.578;24.706;2022-09-09T11:53:20;15.73;;;5.37;;
3463;SDS011;3551;41.578;24.706;2022-09-09T11:58:56;14.33;;;11.37;;
3463;SDS011;3551;41.578;24.706;2022-09-09T12:01:39;10.37;;;5.27;;
3463;SDS011;3551;41.578;24.706;2022-09-09T12:04:14;16.17;;;8.33;;
3463;SDS011;3551;41.578;24.706;2022-09-09T12:07:01;13.80;;;5.07;;
3463;SDS011;3551;41.578;24.706;2022-09-09T12:09:43;8.83;;;5.40;;
3463;SDS011;3551;41.578;24.706;2022-09-09T12:17:47;8.53;;;4.63;;
3463;SDS011;3551;41.578;24.706;2022-09-09T12:20:17;6.97;;;4.87;;
3463;SDS011;3551;41.578;24.706;2022-09-09T12:25:56;9.43;;;6.10;;
3463;SDS011;3551;41.578;24.706;2022-09-09T12:28:27;11.40;;;4.50;;
3463;SDS011;3551;41.578;24.706;2022-09-09T12:31:08;9.13;;;4.40;;
3463;SDS011;3551;41.578;24.706;2022-09-09T12:33:43;9.40;;;4.90;;
3463;SDS011;3551;41.578;24.706;2022-09-09T12:36:15;11.30;;;5.57;;
3463;SDS011;3551;41.578;24.706;2022-09-09T12:38:45;11.40;;;6.67;;
3463;SDS011;3551;41.578;24.706;2022-09-09T12:41:18;8.07;;;5.77;;
3463;SDS011;3551;41.578;24.706;2022-09-09T12:43:46;11.20;;;4.87;;
3463;SDS011;3551;41.578;24.706;2022-09-09T12:46:17;11.90;;;5.03;;
3463;SDS011;3551;41.578;24.706;2022-09-09T12:48:51;9.30;;;5.47;;
3463;SDS011;3551;41.578;24.706;2022-09-09T12:51:23;10.73;;;6.97;;
3463;SDS011;3551;41.578;24.706;2022-09-09T12:53:54;12.87;;;5.03;;
3463;SDS011;3551;41.578;24.706;2022-09-09T12:56:22;13.87;;;4.90;;
3463;SDS011;3551;41.578;24.706;2022-09-09T12:58:52;12.40;;;5.10;;
3463;SDS011;3551;41.578;24.706;2022-09-09T13:01:22;14.83;;;5.47;;
3463;SDS011;3551;41.578;24.706;2022-09-09T13:03:50;7.70;;;4.70;;
3463;SDS011;3551;41.578;24.706;2022-09-09T13:06:19;11.23;;;5.80;;
3463;SDS011;3551;41.578;24.706;2022-09-09T13:08:50;8.50;;;5.03;;
3463;SDS011;3551;41.578;24.706;2022-09-09T13:11:18;6.73;;;4.40;;
3463;SDS011;3551;41.578;24.706;2022-09-09T13:13:50;14.50;;;5.33;;
3463;SDS011;3551;41.578;24.706;2022-09-09T13:16:20;9.30;;;5.17;;
3463;SDS011;3551;41.578;24.706;2022-09-09T13:18:49;15.17;;;5.73;;
3463;SDS011;3551;41.578;24.706;2022-09-09T13:21:17;7.03;;;4.80;;
3463;SDS011;3551;41.578;24.706;2022-09-09T13:23:49;9.93;;;5.20;;
3463;SDS011;3551;41.578;24.706;2022-09-09T13:26:22;12.53;;;6.50;;
3463;SDS011;3551;41.578;24.706;2022-09-09T13:28:51;11.20;;;5.67;;
3463;SDS011;3551;41.578;24.706;2022-09-09T13:31:20;10.10;;;5.60;;
3463;SDS011;3551;41.578;24.706;2022-09-09T13:33:48;9.27;;;5.50;;
3463;SDS011;3551;41.578;24.706;2022-09-09T13:36:26;11.90;;;6.50;;
3463;SDS011;3551;41.578;24.706;2022-09-09T13:38:57;11.57;;;5.13;;
3463;SDS011;3551;41.578;24.706;2022-09-09T13:41:28;9.80;;;5.60;;
3463;SDS011;3551;41.578;24.706;2022-09-09T13:43:57;7.10;;;5.97;;
3463;SDS011;3551;41.578;24.706;2022-09-09T13:46:26;14.43;;;6.50;;
3463;SDS011;3551;41.578;24.706;2022-09-09T13:48:58;7.20;;;5.83;;
3463;SDS011;3551;41.578;24.706;2022-09-09T13:51:33;8.87;;;5.73;;
3463;SDS011;3551;41.578;24.706;2022-09-09T13:54:04;10.23;;;6.13;;
3463;SDS011;3551;41.578;24.706;2022-09-09T13:56:32;8.40;;;5.83;;
3463;SDS011;3551;41.578;24.706;2022-09-09T13:59:00;12.33;;;6.57;;
3463;SDS011;3551;41.578;24.706;2022-09-09T14:01:27;8.83;;;6.17;;
3463;SDS011;3551;41.578;24.706;2022-09-09T14:03:55;9.27;;;5.97;;
3463;SDS011;3551;41.578;24.706;2022-09-09T14:06:23;9.03;;;6.07;;
3463;SDS011;3551;41.578;24.706;2022-09-09T14:08:50;12.10;;;6.10;;
3463;SDS011;3551;41.578;24.706;2022-09-09T14:11:21;8.20;;;6.70;;
3463;SDS011;3551;41.578;24.706;2022-09-09T14:13:48;12.37;;;6.73;;
3463;SDS011;3551;41.578;24.706;2022-09-09T14:16:17;12.03;;;6.70;;
3463;SDS011;3551;41.578;24.706;2022-09-09T14:18:47;9.83;;;7.10;;
3463;SDS011;3551;41.578;24.706;2022-09-09T14:21:14;10.00;;;6.90;;
3463;SDS011;3551;41.578;24.706;2022-09-09T14:23:41;11.63;;;8.17;;
3463;SDS011;3551;41.578;24.706;2022-09-09T14:26:08;12.97;;;8.97;;
3463;SDS011;3551;41.578;24.706;2022-09-09T14:28:36;9.07;;;7.10;;
3463;SDS011;3551;41.578;24.706;2022-09-09T14:31:05;11.30;;;6.10;;
3463;SDS011;3551;41.578;24.706;2022-09-09T14:33:32;7.80;;;6.60;;
3463;SDS011;3551;41.578;24.706;2022-09-09T14:36:00;11.83;;;6.30;;
3463;SDS011;3551;41.578;24.706;2022-09-09T14:38:29;11.23;;;6.83;;
3463;SDS011;3551;41.578;24.706;2022-09-09T14:40:58;18.47;;;6.63;;
3463;SDS011;3551;41.578;24.706;2022-09-09T14:43:28;15.70;;;6.67;;
3463;SDS011;3551;41.578;24.706;2022-09-09T14:45:59;14.70;;;6.73;;
3463;SDS011;3551;41.578;24.706;2022-09-09T14:48:32;20.23;;;6.40;;
3463;SDS011;3551;41.578;24.706;2022-09-09T14:51:04;10.13;;;5.97;;
3463;SDS011;3551;41.578;24.706;2022-09-09T14:53:32;11.00;;;7.00;;
3463;SDS011;3551;41.578;24.706;2022-09-09T14:56:04;9.13;;;7.17;;
3463;SDS011;3551;41.578;24.706;2022-09-09T14:58:32;20.03;;;6.43;;
3463;SDS011;3551;41.578;24.706;2022-09-09T15:01:05;12.50;;;6.87;;
3463;SDS011;3551;41.578;24.706;2022-09-09T15:03:32;15.03;;;6.70;;
3463;SDS011;3551;41.578;24.706;2022-09-09T15:06:04;10.93;;;6.80;;
3463;SDS011;3551;41.578;24.706;2022-09-09T15:08:34;9.33;;;6.83;;
3463;SDS011;3551;41.578;24.706;2022-09-09T15:11:01;10.60;;;6.70;;
3463;SDS011;3551;41.578;24.706;2022-09-09T15:13:29;10.67;;;6.57;;
3463;SDS011;3551;41.578;24.706;2022-09-09T15:15:56;12.63;;;7.30;;
3463;SDS011;3551;41.578;24.706;2022-09-09T15:18:30;10.00;;;6.77;;
3463;SDS011;3551;41.578;24.706;2022-09-09T15:20:58;12.40;;;6.43;;
3463;SDS011;3551;41.578;24.706;2022-09-09T15:23:26;16.33;;;6.77;;
3463;SDS011;3551;41.578;24.706;2022-09-09T15:25:54;10.33;;;6.83;;
3463;SDS011;3551;41.578;24.706;2022-09-09T15:28:21;9.00;;;6.60;;
3463;SDS011;3551;41.578;24.706;2022-09-09T15:30:49;8.17;;;6.90;;